Time;durP1;ratioP1;P1;durP2;ratioP2;P2;SDS_P1;SDS_P2;PMS_P1;PMS_P2;Temp;Humidity;BMP_temperature;BMP_pressure;BME280_temperature;BME280_humidity;BME280_pressure;Samples;Min_cycle;Max_cycle;Signal;HPM_P1;HPM_P2
2023/09/17 00:01:11;;;;;;;7.32;4.35;;;16.30;99.90;;;;;;5006846;28;20081;-64
2023/09/17 00:03:37;;;;;;;5.13;4.30;;;16.20;99.90;;;;;;4988656;28;20042;-64
2023/09/17 00:06:03;;;;;;;6.45;4.47;;;16.20;99.90;;;;;;5000937;28;20419;-64
2023/09/17 00:08:29;;;;;;;6.72;3.83;;;16.10;99.90;;;;;;5007399;28;20505;-64
2023/09/17 00:10:55;;;;;;;7.43;4.95;;;16.00;99.90;;;;;;5007456;28;20045;-64
2023/09/17 00:13:21;;;;;;;7.20;4.70;;;16.00;99.90;;;;;;5006176;28;20593;-65
2023/09/17 00:15:46;;;;;;;5.68;4.65;;;15.90;99.90;;;;;;5009329;28;20050;-64
2023/09/17 00:18:13;;;;;;;5.07;4.30;;;15.80;99.90;;;;;;5007201;28;20049;-64
2023/09/17 00:20:38;;;;;;;6.93;4.43;;;15.80;99.90;;;;;;5008476;28;20063;-64
2023/09/17 00:23:04;;;;;;;4.80;4.20;;;15.80;99.90;;;;;;5007928;28;20551;-64
2023/09/17 00:25:30;;;;;;;5.05;4.30;;;15.80;99.90;;;;;;5007499;28;20056;-64
2023/09/17 00:27:56;;;;;;;7.00;4.57;;;15.80;99.90;;;;;;4987325;28;20145;-64
2023/09/17 00:30:22;;;;;;;5.50;4.05;;;15.70;99.90;;;;;;5006293;28;20045;-64
2023/09/17 00:32:48;;;;;;;6.60;4.25;;;15.70;99.90;;;;;;4993677;28;20496;-64
2023/09/17 00:35:13;;;;;;;6.30;4.07;;;15.70;99.90;;;;;;4973258;28;20042;-65
2023/09/17 00:37:40;;;;;;;4.30;3.88;;;15.60;99.90;;;;;;5008776;28;20050;-64
2023/09/17 00:40:10;;;;;;;6.05;4.43;;;15.60;99.90;;;;;;5007053;28;20069;-64
2023/09/17 00:42:40;;;;;;;8.07;3.80;;;15.50;99.90;;;;;;5007770;28;20155;-64
2023/09/17 00:45:07;;;;;;;5.70;4.35;;;15.50;99.90;;;;;;5007904;28;20058;-64
2023/09/17 00:47:33;;;;;;;6.07;4.57;;;15.40;99.90;;;;;;4989520;28;20055;-64
2023/09/17 00:50:01;;;;;;;9.20;4.72;;;15.40;99.90;;;;;;5008196;28;20050;-65
2023/09/17 00:52:27;;;;;;;6.45;4.28;;;15.40;99.90;;;;;;5007024;28;20424;-64
2023/09/17 00:54:54;;;;;;;5.45;4.32;;;15.40;99.90;;;;;;5006545;28;20072;-64
2023/09/17 00:57:21;;;;;;;5.25;4.40;;;15.40;99.90;;;;;;5006929;28;20464;-64
2023/09/17 00:59:47;;;;;;;4.35;3.95;;;15.30;99.90;;;;;;5007206;28;20118;-64
2023/09/17 01:02:19;;;;;;;4.47;4.00;;;15.30;99.90;;;;;;5007100;28;20403;-64
2023/09/17 01:04:50;;;;;;;7.13;4.30;;;15.20;99.90;;;;;;5006917;28;20048;-64
2023/09/17 01:07:20;;;;;;;7.40;3.90;;;15.10;99.90;;;;;;5007913;28;20050;-64
2023/09/17 01:09:46;;;;;;;4.25;3.92;;;15.00;99.90;;;;;;4989104;28;20185;-64
2023/09/17 01:12:12;;;;;;;8.23;4.93;;;15.00;99.90;;;;;;4989778;28;20042;-64
2023/09/17 01:14:38;;;;;;;4.35;3.95;;;15.00;99.90;;;;;;5005810;28;20054;-64
2023/09/17 01:17:08;;;;;;;6.78;4.22;;;14.90;99.90;;;;;;5005675;28;20104;-64
2023/09/17 01:19:34;;;;;;;5.10;4.60;;;14.90;99.90;;;;;;5005674;28;20408;-64
2023/09/17 01:22:20;;;;;;;5.38;4.63;;;14.90;99.90;;;;;;5006315;28;20049;-64
2023/09/17 01:25:12;;;;;;;5.18;4.28;;;14.90;99.90;;;;;;4990292;28;20104;-64
2023/09/17 01:27:39;;;;;;;7.43;4.55;;;14.80;99.90;;;;;;5006932;28;20053;-65
2023/09/17 01:30:14;;;;;;;4.93;4.38;;;14.80;99.90;;;;;;5005748;28;20096;-64
2023/09/17 01:32:40;;;;;;;7.30;4.10;;;14.80;99.90;;;;;;5020043;28;20121;-64
2023/09/17 01:35:07;;;;;;;4.40;3.97;;;14.80;99.90;;;;;;5006288;28;20054;-64
2023/09/17 01:37:39;;;;;;;4.95;3.83;;;14.80;99.90;;;;;;5014929;28;20080;-65
2023/09/17 01:40:11;;;;;;;4.75;4.35;;;14.80;99.90;;;;;;5005623;28;20416;-64
2023/09/17 01:42:48;;;;;;;6.55;4.45;;;14.80;99.90;;;;;;4989401;28;20042;-64
2023/09/17 01:45:18;;;;;;;6.35;4.93;;;14.80;99.90;;;;;;5005396;28;20050;-64
2023/09/17 01:47:47;;;;;;;6.05;4.68;;;14.70;99.90;;;;;;5008327;28;20049;-64
2023/09/17 01:50:18;;;;;;;8.38;4.82;;;14.70;99.90;;;;;;5008064;28;20472;-64
2023/09/17 01:52:44;;;;;;;5.95;4.80;;;14.80;99.90;;;;;;4991790;28;20124;-64
2023/09/17 01:55:12;;;;;;;11.45;5.20;;;15.00;99.90;;;;;;5005408;28;20124;-64
2023/09/17 01:57:38;;;;;;;7.05;5.82;;;15.20;99.90;;;;;;5006295;28;20060;-64
2023/09/17 02:00:38;;;;;;;7.45;6.13;;;15.40;99.90;;;;;;4988992;28;20404;-64
2023/09/17 02:02:56;;;;;;;8.00;6.30;;;15.60;99.90;;;;;;5004671;28;20057;-64
2023/09/17 02:05:24;;;;;;;9.85;6.55;;;15.70;99.90;;;;;;5004223;28;20057;-64
2023/09/17 02:07:51;;;;;;;10.15;6.85;;;15.80;99.90;;;;;;5007014;28;20041;-64
2023/09/17 02:10:16;;;;;;;9.45;7.70;;;15.90;99.90;;;;;;4988072;28;20045;-64
2023/09/17 02:12:42;;;;;;;11.13;7.28;;;16.00;99.90;;;;;;5006626;28;20038;-64
2023/09/17 02:15:11;;;;;;;11.00;6.82;;;16.00;99.90;;;;;;4996952;28;20395;-64
2023/09/17 02:17:37;;;;;;;8.45;6.97;;;16.10;99.90;;;;;;5005428;28;20053;-64
2023/09/17 02:20:04;;;;;;;14.27;8.25;;;16.10;99.90;;;;;;5004526;28;20058;-65
2023/09/17 02:22:31;;;;;;;10.70;7.57;;;16.10;99.90;;;;;;4971999;28;20049;-64
2023/09/17 02:25:03;;;;;;;10.35;6.95;;;16.10;99.90;;;;;;5006481;28;20056;-64
2023/09/17 02:27:29;;;;;;;9.40;6.85;;;16.10;99.90;;;;;;5005146;28;20068;-64
2023/09/17 02:29:55;;;;;;;12.90;7.72;;;16.10;99.90;;;;;;5006463;28;20488;-64
2023/09/17 02:32:20;;;;;;;12.32;7.75;;;16.00;99.90;;;;;;4978528;28;20053;-64
2023/09/17 02:34:46;;;;;;;8.95;7.38;;;16.10;99.90;;;;;;4972893;28;20049;-65
2023/09/17 02:37:12;;;;;;;13.82;7.95;;;16.00;99.90;;;;;;5000168;28;20053;-64
2023/09/17 02:39:37;;;;;;;10.48;8.88;;;16.00;99.90;;;;;;5004530;28;20070;-64
2023/09/17 02:42:03;;;;;;;12.32;8.73;;;16.10;99.90;;;;;;5006529;28;20050;-64
2023/09/17 02:44:29;;;;;;;13.45;8.95;;;16.10;99.90;;;;;;5004444;28;20100;-64
2023/09/17 02:46:55;;;;;;;16.40;9.25;;;16.20;99.90;;;;;;5006451;28;20045;-64
2023/09/17 02:49:21;;;;;;;11.98;8.90;;;16.20;99.90;;;;;;4991186;28;20056;-64
2023/09/17 02:51:48;;;;;;;13.57;9.52;;;16.20;99.90;;;;;;5005662;28;20381;-63
2023/09/17 02:54:14;;;;;;;12.93;9.88;;;16.10;99.90;;;;;;5005938;28;20559;-64
2023/09/17 02:56:40;;;;;;;14.15;9.25;;;16.10;99.90;;;;;;5005147;28;20544;-64
2023/09/17 02:59:06;;;;;;;13.40;9.27;;;16.00;99.90;;;;;;5006315;28;20125;-64
2023/09/17 03:01:31;;;;;;;13.30;8.13;;;16.10;99.90;;;;;;5001924;28;20645;-64
2023/09/17 03:03:57;;;;;;;9.80;7.93;;;16.10;99.90;;;;;;5007905;28;20093;-64
2023/09/17 03:06:23;;;;;;;12.70;7.65;;;16.10;99.90;;;;;;5024245;28;20045;-64
2023/09/17 03:08:49;;;;;;;10.60;8.07;;;16.10;99.90;;;;;;5025759;28;20045;-64
2023/09/17 03:11:17;;;;;;;10.75;7.68;;;16.10;99.90;;;;;;5025189;28;20123;-64
2023/09/17 03:13:46;;;;;;;11.02;8.13;;;16.10;99.90;;;;;;4995603;28;20566;-64
2023/09/17 03:16:15;;;;;;;9.90;7.53;;;16.00;99.90;;;;;;5020614;28;20062;-64
2023/09/17 03:18:44;;;;;;;8.38;6.50;;;16.00;99.90;;;;;;5004497;28;20127;-64
2023/09/17 03:21:10;;;;;;;7.80;6.63;;;16.00;99.90;;;;;;4988438;28;20053;-64
2023/09/17 03:23:36;;;;;;;8.25;6.45;;;15.90;99.90;;;;;;5004305;28;20419;-64
2023/09/17 03:26:03;;;;;;;8.10;6.78;;;15.80;99.90;;;;;;5005621;28;20073;-64
2023/09/17 03:28:31;;;;;;;9.65;7.38;;;15.80;99.90;;;;;;5003568;28;20089;-64
2023/09/17 03:30:58;;;;;;;9.63;6.75;;;15.80;99.90;;;;;;5005397;28;20061;-64
2023/09/17 03:33:24;;;;;;;7.35;6.45;;;15.70;99.90;;;;;;5005359;28;20045;-64
2023/09/17 03:35:51;;;;;;;7.35;5.70;;;15.80;99.90;;;;;;5005320;28;20050;-64
2023/09/17 03:38:17;;;;;;;10.13;5.95;;;15.70;99.90;;;;;;5005871;28;20046;-64
2023/09/17 03:40:43;;;;;;;8.65;6.20;;;15.60;99.90;;;;;;4966546;28;20082;-64
2023/09/17 03:43:09;;;;;;;6.70;6.10;;;15.60;99.90;;;;;;5006253;28;20053;-64
2023/09/17 03:45:35;;;;;;;7.72;6.18;;;15.60;99.90;;;;;;5002940;28;20112;-64
2023/09/17 03:48:00;;;;;;;9.32;7.13;;;15.50;99.90;;;;;;4987900;28;20085;-64
2023/09/17 03:50:27;;;;;;;9.13;6.20;;;15.50;99.90;;;;;;5003850;28;20061;-64
2023/09/17 03:52:56;;;;;;;9.15;7.13;;;15.40;99.90;;;;;;5003255;28;20061;-64
2023/09/17 03:55:23;;;;;;;9.63;6.97;;;15.50;99.90;;;;;;5003749;28;20113;-64
2023/09/17 03:57:50;;;;;;;8.63;7.35;;;15.50;99.90;;;;;;5004523;28;20405;-64
2023/09/17 04:00:17;;;;;;;7.47;6.68;;;15.60;99.90;;;;;;5006048;28;20117;-64
2023/09/17 04:02:44;;;;;;;8.38;7.05;;;15.70;99.90;;;;;;5004102;28;20112;-64
2023/09/17 04:05:12;;;;;;;10.93;6.85;;;15.80;99.90;;;;;;4994461;28;20045;-64
2023/09/17 04:07:40;;;;;;;8.32;6.72;;;16.00;99.90;;;;;;5008484;28;20073;-64
2023/09/17 04:10:07;;;;;;;8.95;6.38;;;16.00;99.90;;;;;;5008275;28;20472;-64
2023/09/17 04:12:34;;;;;;;8.95;6.82;;;16.10;99.90;;;;;;5008516;28;20042;-64
2023/09/17 04:15:00;;;;;;;9.13;6.78;;;16.10;99.90;;;;;;4998943;28;20042;-64
2023/09/17 04:17:26;;;;;;;8.90;6.05;;;16.20;99.90;;;;;;4991531;28;20086;-64
2023/09/17 04:19:52;;;;;;;8.43;6.75;;;16.10;99.90;;;;;;5007225;28;20077;-64
2023/09/17 04:22:18;;;;;;;8.88;6.47;;;16.20;99.90;;;;;;5008794;28;20068;-64
2023/09/17 04:24:44;;;;;;;7.78;6.95;;;16.20;99.90;;;;;;5006712;28;20038;-64
2023/09/17 04:27:11;;;;;;;8.38;6.80;;;16.20;99.90;;;;;;5008747;28;20041;-64
2023/09/17 04:29:37;;;;;;;8.00;6.80;;;16.20;99.90;;;;;;5006388;28;20484;-64
2023/09/17 04:32:03;;;;;;;10.55;7.50;;;16.20;99.90;;;;;;4999237;28;20046;-64
2023/09/17 04:34:29;;;;;;;9.73;6.78;;;16.30;99.90;;;;;;5008307;28;20514;-64
2023/09/17 04:36:58;;;;;;;8.27;7.28;;;16.30;99.90;;;;;;4989116;28;20049;-64
2023/09/17 04:39:25;;;;;;;7.20;6.50;;;16.20;99.90;;;;;;5009421;28;20511;-64
2023/09/17 04:41:51;;;;;;;9.52;7.00;;;16.20;99.90;;;;;;5026547;28;20058;-65
2023/09/17 04:44:16;;;;;;;14.50;7.47;;;16.30;99.90;;;;;;5028293;28;20037;-64
2023/09/17 04:46:45;;;;;;;13.88;7.07;;;16.40;99.90;;;;;;5009365;28;20132;-64
2023/09/17 04:49:11;;;;;;;8.95;6.90;;;16.40;99.90;;;;;;5027798;28;20049;-65
2023/09/17 04:51:37;;;;;;;10.93;6.90;;;16.50;99.90;;;;;;5009659;28;20075;-64
2023/09/17 04:54:04;;;;;;;8.02;7.20;;;16.50;99.90;;;;;;5026833;28;20049;-65
2023/09/17 04:56:30;;;;;;;9.55;7.80;;;16.50;99.90;;;;;;5015158;28;20439;-64
2023/09/17 04:59:00;;;;;;;10.63;7.70;;;16.50;99.90;;;;;;4996536;28;20053;-64
2023/09/17 05:01:26;;;;;;;9.25;7.40;;;16.50;99.90;;;;;;4998472;28;20050;-64
2023/09/17 05:03:52;;;;;;;9.60;6.72;;;16.50;99.90;;;;;;4975966;28;20048;-64
2023/09/17 05:06:18;;;;;;;14.25;8.00;;;16.50;99.90;;;;;;4992845;28;20083;-64
2023/09/17 05:08:44;;;;;;;9.25;7.72;;;16.50;99.90;;;;;;5009654;28;20045;-64
2023/09/17 05:11:10;;;;;;;10.55;7.90;;;16.50;99.90;;;;;;5000515;28;20049;-64
2023/09/17 05:13:35;;;;;;;7.65;6.65;;;16.50;99.90;;;;;;5017402;28;20050;-64
2023/09/17 05:16:03;;;;;;;10.00;7.30;;;16.50;99.90;;;;;;4981435;28;20123;-64
2023/09/17 05:18:29;;;;;;;9.48;7.22;;;16.50;99.90;;;;;;5010218;28;20076;-64
2023/09/17 05:20:54;;;;;;;10.65;7.50;;;16.50;99.90;;;;;;5000336;28;20046;-64
2023/09/17 05:23:23;;;;;;;9.05;7.38;;;16.50;99.90;;;;;;5015067;28;20049;-64
2023/09/17 05:25:50;;;;;;;13.48;8.77;;;16.50;99.90;;;;;;5008908;28;20087;-64
2023/09/17 05:28:15;;;;;;;8.88;7.45;;;16.50;99.90;;;;;;5026585;28;20053;-64
2023/09/17 05:30:41;;;;;;;8.30;7.45;;;16.50;99.90;;;;;;5022248;28;20046;-64
2023/09/17 05:33:07;;;;;;;9.50;7.72;;;16.60;99.90;;;;;;4992903;28;20051;-64
2023/09/17 05:35:36;;;;;;;8.55;7.65;;;16.50;99.90;;;;;;5027747;28;20046;-64
2023/09/17 05:38:02;;;;;;;11.38;7.68;;;16.40;99.90;;;;;;5025679;28;20080;-64
2023/09/17 05:40:28;;;;;;;9.63;7.20;;;16.50;99.90;;;;;;5026694;28;20599;-64
2023/09/17 05:42:54;;;;;;;8.38;7.45;;;16.50;99.90;;;;;;5004940;28;20688;-64
2023/09/17 05:45:19;;;;;;;12.65;8.15;;;16.40;99.90;;;;;;5026286;28;20794;-64
2023/09/17 05:47:46;;;;;;;10.15;8.00;;;16.50;99.90;;;;;;5008798;28;20144;-64
2023/09/17 05:50:11;;;;;;;11.23;8.13;;;16.50;99.90;;;;;;5008465;28;20049;-64
2023/09/17 05:52:37;;;;;;;12.38;8.32;;;16.40;99.90;;;;;;4994860;28;20125;-64
2023/09/17 05:55:04;;;;;;;12.20;9.32;;;16.40;99.90;;;;;;5022308;28;20412;-64
2023/09/17 05:57:30;;;;;;;10.70;8.45;;;16.40;99.90;;;;;;5026987;28;20450;-64
2023/09/17 05:59:57;;;;;;;10.27;7.65;;;16.50;99.90;;;;;;5025545;28;20045;-64
2023/09/17 06:02:23;;;;;;;13.10;8.55;;;16.50;99.90;;;;;;4993563;28;20057;-64
2023/09/17 06:04:52;;;;;;;9.32;8.35;;;16.50;99.90;;;;;;5017728;28;20041;-64
2023/09/17 06:07:22;;;;;;;10.60;8.35;;;16.50;99.90;;;;;;5025618;28;20380;-64
2023/09/17 06:09:48;;;;;;;11.70;8.90;;;16.50;99.90;;;;;;5026285;28;20064;-64
2023/09/17 06:12:15;;;;;;;10.52;8.40;;;16.50;99.90;;;;;;5025202;28;20108;-64
2023/09/17 06:14:41;;;;;;;10.73;7.95;;;16.50;99.90;;;;;;4995704;28;20443;-64
2023/09/17 06:17:07;;;;;;;9.10;7.38;;;16.50;99.90;;;;;;5025584;28;20044;-64
2023/09/17 06:19:33;;;;;;;9.68;8.25;;;16.50;99.90;;;;;;5007245;28;20055;-64
2023/09/17 06:21:59;;;;;;;9.85;7.38;;;16.60;99.90;;;;;;4998814;28;20046;-64
2023/09/17 06:24:25;;;;;;;9.23;7.43;;;16.50;99.90;;;;;;5025297;28;20045;-64
2023/09/17 06:26:51;;;;;;;10.50;8.25;;;16.60;99.90;;;;;;5025233;28;20538;-64
2023/09/17 06:29:17;;;;;;;13.73;8.25;;;16.70;99.90;;;;;;5025356;28;20107;-64
2023/09/17 06:31:44;;;;;;;16.58;8.00;;;16.80;99.90;;;;;;5007481;28;20035;-64
2023/09/17 06:34:10;;;;;;;12.85;8.85;;;16.80;99.90;;;;;;5007370;28;20447;-64
2023/09/17 06:36:37;;;;;;;12.73;7.95;;;16.70;99.90;;;;;;4992208;28;20055;-64
2023/09/17 06:39:03;;;;;;;9.98;7.80;;;16.80;99.90;;;;;;5025127;28;20607;-64
2023/09/17 06:41:29;;;;;;;10.82;8.82;;;16.80;99.90;;;;;;5007368;28;20057;-64
2023/09/17 06:43:55;;;;;;;13.60;9.10;;;16.80;99.90;;;;;;4991535;28;20083;-64
2023/09/17 06:46:23;;;;;;;9.02;7.63;;;16.80;99.90;;;;;;5024853;28;20049;-64
2023/09/17 06:48:51;;;;;;;13.52;8.00;;;16.90;99.90;;;;;;5025743;28;20091;-64
2023/09/17 06:51:17;;;;;;;11.10;7.43;;;16.90;99.90;;;;;;5007068;28;20128;-64
2023/09/17 06:53:43;;;;;;;11.52;7.88;;;17.00;99.90;;;;;;5026104;28;20051;-64
2023/09/17 06:56:11;;;;;;;11.68;8.90;;;17.00;99.90;;;;;;5025060;28;20045;-64
2023/09/17 06:58:37;;;;;;;10.43;9.27;;;16.90;99.90;;;;;;5025261;28;20121;-64
2023/09/17 07:01:03;;;;;;;11.60;8.70;;;17.00;99.90;;;;;;5023183;28;20128;-64
2023/09/17 07:03:29;;;;;;;9.45;8.45;;;17.00;99.90;;;;;;5015386;28;20510;-64
2023/09/17 07:05:55;;;;;;;14.18;8.23;;;17.10;99.90;;;;;;5005937;28;20038;-64
2023/09/17 07:08:21;;;;;;;10.80;8.88;;;17.10;99.90;;;;;;5004697;28;20064;-64
2023/09/17 07:10:46;;;;;;;15.25;10.05;;;17.10;99.90;;;;;;5022365;28;20060;-64
2023/09/17 07:13:12;;;;;;;13.00;8.88;;;17.20;99.90;;;;;;5011198;28;20050;-64
2023/09/17 07:15:38;;;;;;;11.82;8.88;;;17.20;99.90;;;;;;5008314;28;20054;-65
2023/09/17 07:18:07;;;;;;;9.23;8.25;;;17.20;99.90;;;;;;5004898;28;20400;-65
2023/09/17 07:20:33;;;;;;;10.80;8.55;;;17.20;99.90;;;;;;5005593;28;20054;-64
2023/09/17 07:22:58;;;;;;;11.13;8.35;;;17.20;99.90;;;;;;5005388;28;20099;-64
2023/09/17 07:25:24;;;;;;;9.77;7.80;;;17.30;99.90;;;;;;5004384;28;20452;-65
2023/09/17 07:27:50;;;;;;;10.88;8.65;;;17.40;99.90;;;;;;5006531;28;20099;-64
2023/09/17 07:30:17;;;;;;;8.98;8.13;;;17.50;99.90;;;;;;4986615;28;20041;-64
2023/09/17 07:32:42;;;;;;;9.43;8.05;;;17.50;99.90;;;;;;5006241;28;20459;-64
2023/09/17 07:35:08;;;;;;;12.38;7.88;;;17.50;99.90;;;;;;5004922;28;20419;-64
2023/09/17 07:37:34;;;;;;;9.57;7.93;;;17.50;99.90;;;;;;4968175;28;20042;-64
2023/09/17 07:40:04;;;;;;;12.15;8.05;;;17.60;99.90;;;;;;5007402;28;20042;-64
2023/09/17 07:42:30;;;;;;;11.63;8.38;;;17.70;99.90;;;;;;5008598;28;20545;-64
2023/09/17 07:44:56;;;;;;;10.23;8.70;;;17.80;99.90;;;;;;5009378;28;20124;-64
2023/09/17 07:47:22;;;;;;;8.73;7.70;;;17.80;99.90;;;;;;4989605;28;20169;-64
2023/09/17 07:49:47;;;;;;;11.38;8.05;;;18.00;99.90;;;;;;5007450;28;20034;-64
2023/09/17 07:52:13;;;;;;;11.25;8.18;;;18.10;99.90;;;;;;5007820;28;20486;-64
2023/09/17 07:54:40;;;;;;;10.65;8.82;;;18.10;99.90;;;;;;5008222;28;20104;-64
2023/09/17 07:57:07;;;;;;;11.88;9.55;;;18.40;99.90;;;;;;4988939;28;20484;-64
2023/09/17 07:59:33;;;;;;;15.52;10.18;;;18.50;99.90;;;;;;5007323;28;20120;-64
2023/09/17 08:01:59;;;;;;;12.35;8.75;;;18.40;99.90;;;;;;5007633;28;20492;-64
2023/09/17 08:04:25;;;;;;;9.75;8.55;;;18.40;99.90;;;;;;5007377;28;20030;-64
2023/09/17 08:06:51;;;;;;;10.30;8.40;;;18.40;99.90;;;;;;5008542;28;20117;-64
2023/09/17 08:09:17;;;;;;;10.30;7.65;;;18.50;99.90;;;;;;5009164;28;20448;-64
2023/09/17 08:11:43;;;;;;;10.23;7.78;;;18.50;99.90;;;;;;5008006;28;20049;-64
2023/09/17 08:14:10;;;;;;;12.48;8.60;;;18.50;99.90;;;;;;5004607;28;20138;-64
2023/09/17 08:16:37;;;;;;;12.77;8.50;;;18.60;99.90;;;;;;5008298;28;20553;-64
2023/09/17 08:19:04;;;;;;;10.45;7.45;;;18.60;99.90;;;;;;4982650;28;20129;-64
2023/09/17 08:21:30;;;;;;;12.13;8.38;;;18.70;99.90;;;;;;5012607;28;20384;-64
2023/09/17 08:23:56;;;;;;;9.73;7.55;;;18.80;99.90;;;;;;4973823;28;20136;-64
2023/09/17 08:26:22;;;;;;;9.68;7.70;;;18.90;99.90;;;;;;4988747;28;20061;-64
2023/09/17 08:28:49;;;;;;;12.48;6.57;;;18.90;99.90;;;;;;5007661;28;20050;-64
2023/09/17 08:31:16;;;;;;;8.32;7.15;;;19.00;99.90;;;;;;5004475;28;20046;-64
2023/09/17 08:33:45;;;;;;;8.48;6.80;;;19.20;99.90;;;;;;5007078;28;20412;-64
2023/09/17 08:36:11;;;;;;;8.23;6.60;;;19.30;99.90;;;;;;4989964;28;20414;-64
2023/09/17 08:38:37;;;;;;;6.95;6.05;;;19.20;99.90;;;;;;5005023;28;20064;-65
2023/09/17 08:41:05;;;;;;;9.20;6.20;;;19.10;99.90;;;;;;4986845;28;20058;-64
2023/09/17 08:43:31;;;;;;;8.02;6.70;;;19.00;99.90;;;;;;5004225;28;20049;-64
2023/09/17 08:45:59;;;;;;;6.97;5.55;;;18.90;99.90;;;;;;5002570;28;20049;-64
2023/09/17 08:48:26;;;;;;;7.72;6.38;;;18.80;99.90;;;;;;5002803;28;20038;-64
2023/09/17 08:50:53;;;;;;;8.90;6.82;;;18.80;99.90;;;;;;5000146;28;20046;-64
2023/09/17 08:53:38;;;;;;;11.07;6.25;;;18.90;99.90;;;;;;5006572;28;20465;-64
2023/09/17 08:56:06;;;;;;;8.30;6.35;;;19.00;99.90;;;;;;4997491;28;20559;-64
2023/09/17 08:58:52;;;;;;;9.98;6.63;;;19.00;99.90;;;;;;5006517;28;20042;-64
2023/09/17 09:01:20;;;;;;;8.15;6.40;;;19.10;99.90;;;;;;5002652;28;20046;-64
2023/09/17 09:03:46;;;;;;;9.98;6.68;;;19.10;99.90;;;;;;5006775;28;20045;-64
2023/09/17 09:06:14;;;;;;;12.13;6.28;;;19.10;99.90;;;;;;4988588;28;20652;-64
2023/09/17 09:08:43;;;;;;;11.30;7.28;;;19.10;99.90;;;;;;5005790;28;20140;-64
2023/09/17 09:11:09;;;;;;;10.63;6.93;;;19.10;99.90;;;;;;5005856;28;20412;-64
2023/09/17 09:13:36;;;;;;;9.63;6.93;;;19.20;99.90;;;;;;5003424;28;20496;-64
2023/09/17 09:16:03;;;;;;;8.98;7.18;;;19.20;99.90;;;;;;4990573;28;20045;-64
2023/09/17 09:18:29;;;;;;;9.98;6.70;;;19.30;99.90;;;;;;5010188;28;20037;-64
2023/09/17 09:20:55;;;;;;;11.00;7.35;;;19.30;99.90;;;;;;5007466;28;20046;-64
2023/09/17 09:23:21;;;;;;;9.20;6.95;;;19.30;99.90;;;;;;5006449;28;20050;-64
2023/09/17 09:25:47;;;;;;;10.30;6.63;;;19.30;99.90;;;;;;5006061;28;20125;-64
2023/09/17 09:28:13;;;;;;;12.95;6.93;;;19.20;99.90;;;;;;5006829;28;20164;-64
2023/09/17 09:30:41;;;;;;;6.80;6.13;;;19.20;99.90;;;;;;4988000;28;20034;-64
2023/09/17 09:33:07;;;;;;;8.68;5.82;;;19.20;99.90;;;;;;4988494;28;20081;-64
2023/09/17 09:35:33;;;;;;;6.72;5.68;;;19.20;99.90;;;;;;4997777;28;20435;-64
2023/09/17 09:38:01;;;;;;;8.63;6.35;;;19.20;99.90;;;;;;4989127;28;20045;-64
2023/09/17 09:40:27;;;;;;;8.73;6.43;;;19.20;99.90;;;;;;4998267;28;20045;-64
2023/09/17 09:42:53;;;;;;;7.68;6.03;;;19.20;99.90;;;;;;4988778;28;20064;-64
2023/09/17 09:45:18;;;;;;;6.53;5.57;;;19.30;99.90;;;;;;5003531;28;20054;-65
2023/09/17 09:47:51;;;;;;;8.23;5.30;;;19.30;99.90;;;;;;4987935;28;20030;-64
2023/09/17 09:50:35;;;;;;;7.82;5.90;;;19.40;99.90;;;;;;4988221;28;20488;-64
2023/09/17 09:53:00;;;;;;;6.80;5.72;;;19.40;99.90;;;;;;5003445;28;20049;-64
2023/09/17 09:55:29;;;;;;;7.57;5.72;;;19.50;99.90;;;;;;4999919;28;20461;-64
2023/09/17 09:57:55;;;;;;;10.40;6.07;;;19.60;99.90;;;;;;5005456;28;20145;-64
2023/09/17 10:00:29;;;;;;;10.20;6.18;;;19.60;99.90;;;;;;5004275;28;20112;-64
2023/09/17 10:02:55;;;;;;;8.13;4.97;;;19.70;99.90;;;;;;4994643;28;20081;-66
2023/09/17 10:05:36;;;;;;;6.20;5.05;;;19.80;99.90;;;;;;4987014;28;20060;-64
2023/09/17 10:08:05;;;;;;;8.30;4.88;;;19.90;99.90;;;;;;5005903;28;20129;-64
2023/09/17 10:10:32;;;;;;;5.03;4.50;;;20.00;99.90;;;;;;5005144;28;20420;-64
2023/09/17 10:13:00;;;;;;;5.75;4.68;;;20.00;99.90;;;;;;4997694;28;20033;-64
2023/09/17 10:15:27;;;;;;;7.15;4.60;;;20.30;99.90;;;;;;4984755;28;20045;-64
2023/09/17 10:17:55;;;;;;;5.55;4.57;;;20.50;99.90;;;;;;5001842;28;20600;-64
2023/09/17 10:20:22;;;;;;;8.30;4.65;;;20.50;99.90;;;;;;4983098;28;20050;-64
2023/09/17 10:22:50;;;;;;;6.32;4.05;;;20.70;99.90;;;;;;4985868;28;20145;-64
2023/09/17 10:25:17;;;;;;;5.43;3.88;;;20.70;99.90;;;;;;4987777;28;20048;-64
2023/09/17 10:27:44;;;;;;;7.82;3.83;;;20.70;99.90;;;;;;5003146;28;20548;-64
2023/09/17 10:30:12;;;;;;;6.07;3.50;;;20.70;99.90;;;;;;4984627;28;20445;-64
2023/09/17 10:32:39;;;;;;;3.97;3.67;;;20.70;99.90;;;;;;5004318;28;20460;-64
2023/09/17 10:35:06;;;;;;;6.25;3.75;;;20.60;99.90;;;;;;5005374;28;20042;-64
2023/09/17 10:37:36;;;;;;;5.13;3.55;;;20.60;99.90;;;;;;5002425;28;20623;-64
2023/09/17 10:40:08;;;;;;;6.60;3.38;;;20.50;99.90;;;;;;4982898;28;20090;-64
2023/09/17 10:42:36;;;;;;;4.00;3.65;;;20.40;99.90;;;;;;4998261;28;20108;-63
2023/09/17 10:45:04;;;;;;;4.00;3.60;;;20.20;99.90;;;;;;5004132;28;20046;-63
2023/09/17 10:47:33;;;;;;;4.10;3.80;;;20.10;99.90;;;;;;5005179;28;20045;-63
2023/09/17 10:49:59;;;;;;;3.92;3.60;;;20.00;99.90;;;;;;5000810;28;20128;-64
2023/09/17 10:52:26;;;;;;;5.85;4.53;;;20.00;99.90;;;;;;5004407;28;20037;-63
2023/09/17 10:54:52;;;;;;;4.15;3.70;;;19.90;99.90;;;;;;4987656;28;20129;-63
2023/09/17 10:57:26;;;;;;;5.28;4.13;;;19.90;99.90;;;;;;5004783;28;20113;-64
2023/09/17 10:59:54;;;;;;;4.95;4.40;;;19.90;99.90;;;;;;5000335;28;20149;-63
2023/09/17 11:02:21;;;;;;;4.60;3.95;;;20.00;99.90;;;;;;5003996;28;20562;-64
2023/09/17 11:04:48;;;;;;;5.32;4.32;;;20.00;99.90;;;;;;4987968;28;20462;-63
2023/09/17 11:07:14;;;;;;;5.05;4.15;;;20.20;99.90;;;;;;5004204;28;20493;-64
2023/09/17 11:09:42;;;;;;;4.03;3.60;;;20.20;99.90;;;;;;4986616;28;20077;-64
2023/09/17 11:12:08;;;;;;;4.75;4.10;;;20.20;99.90;;;;;;4988535;28;20042;-64
2023/09/17 11:14:33;;;;;;;4.40;4.00;;;20.20;99.90;;;;;;4990086;28;20088;-64
2023/09/17 11:17:00;;;;;;;4.30;3.83;;;20.20;99.90;;;;;;5016908;28;20077;-64
2023/09/17 11:19:26;;;;;;;4.47;4.03;;;20.20;99.90;;;;;;4990615;28;20045;-64
2023/09/17 11:22:04;;;;;;;6.50;4.32;;;20.20;99.90;;;;;;5009830;28;20038;-64
2023/09/17 11:24:32;;;;;;;4.68;3.85;;;20.30;99.90;;;;;;4974368;28;20049;-64
2023/09/17 11:27:01;;;;;;;5.82;4.38;;;20.30;99.90;;;;;;5009184;28;20041;-64
2023/09/17 11:29:44;;;;;;;5.70;4.03;;;20.40;99.90;;;;;;5017303;28;20045;-64
2023/09/17 11:32:11;;;;;;;5.15;4.40;;;20.40;99.90;;;;;;4990533;28;20517;-64
2023/09/17 11:34:41;;;;;;;5.43;4.13;;;20.40;99.90;;;;;;4989704;28;20088;-64
2023/09/17 11:37:07;;;;;;;4.63;4.07;;;20.50;99.90;;;;;;5008182;28;20107;-64
2023/09/17 11:39:35;;;;;;;5.32;3.90;;;20.50;99.90;;;;;;5008505;28;20069;-64
2023/09/17 11:42:12;;;;;;;8.85;4.50;;;20.60;99.90;;;;;;5008616;28;20056;-64
2023/09/17 11:44:40;;;;;;;5.93;4.10;;;20.70;99.90;;;;;;4975112;28;20045;-64
2023/09/17 11:47:07;;;;;;;4.50;3.90;;;20.90;99.90;;;;;;5007934;28;20038;-64
2023/09/17 11:49:34;;;;;;;4.32;3.92;;;21.20;99.90;;;;;;4999800;28;20396;-64
2023/09/17 11:51:59;;;;;;;4.95;3.92;;;21.30;99.90;;;;;;5004352;28;20077;-64
2023/09/17 11:54:33;;;;;;;7.63;4.47;;;21.40;99.90;;;;;;4990072;28;20135;-64
2023/09/17 11:56:59;;;;;;;5.63;4.38;;;21.50;99.90;;;;;;4999404;28;20096;-64
2023/09/17 11:59:26;;;;;;;4.75;4.07;;;21.50;99.90;;;;;;4971203;28;20046;-64
2023/09/17 12:01:57;;;;;;;6.93;3.92;;;21.60;99.90;;;;;;5002220;28;20467;-64
2023/09/17 12:04:25;;;;;;;4.13;3.72;;;21.80;99.90;;;;;;4990402;28;20054;-64
2023/09/17 12:06:53;;;;;;;4.57;4.18;;;21.90;99.90;;;;;;5003174;28;20042;-64
2023/09/17 12:09:40;;;;;;;4.20;3.53;;;21.90;99.90;;;;;;4990128;28;20200;-64
2023/09/17 12:12:07;;;;;;;4.72;4.22;;;21.90;99.90;;;;;;5005402;28;20088;-64
2023/09/17 12:14:33;;;;;;;5.35;4.32;;;21.90;99.90;;;;;;5007237;28;20728;-64
2023/09/17 12:17:04;;;;;;;4.93;4.07;;;21.90;99.90;;;;;;4990249;28;20053;-64
2023/09/17 12:19:30;;;;;;;7.28;4.15;;;21.80;99.90;;;;;;4997538;28;20395;-64
2023/09/17 12:21:59;;;;;;;5.53;4.07;;;21.70;99.90;;;;;;4994079;28;20058;-65
2023/09/17 12:24:47;;;;;;;4.13;3.70;;;21.60;99.90;;;;;;5003172;28;20072;-64
2023/09/17 12:29:55;;;;;;;4.32;3.92;;;21.50;99.90;;;;;;5002492;28;20100;-64
2023/09/17 12:32:27;;;;;;;7.40;4.78;;;21.40;99.90;;;;;;4988090;28;20061;-64
2023/09/17 12:34:57;;;;;;;4.28;3.78;;;21.40;99.90;;;;;;4990980;28;20049;-64
2023/09/17 12:37:23;;;;;;;4.72;4.20;;;21.30;99.90;;;;;;4989982;28;20061;-64
2023/09/17 12:39:49;;;;;;;4.75;4.25;;;21.30;99.90;;;;;;5003121;28;20527;-65
2023/09/17 12:42:16;;;;;;;5.72;4.50;;;21.20;99.90;;;;;;5006925;28;20153;-64
2023/09/17 12:44:42;;;;;;;5.43;4.80;;;21.20;99.90;;;;;;4973047;28;20140;-64
2023/09/17 12:47:09;;;;;;;6.95;4.18;;;21.40;99.90;;;;;;4970291;28;20046;-64